Time;durP1;ratioP1;P1;durP2;ratioP2;P2;SDS_P1;SDS_P2;PMS_P1;PMS_P2;Temp;Humidity;BMP_temperature;BMP_pressure;BME280_temperature;BME280_humidity;BME280_pressure;Samples;Min_cycle;Max_cycle;Signal;HPM_P1;HPM_P2
2022/10/12 00:00:51;;;;;;;;;;;20.80;68.60;;;;;;5019939;28;832;-67
2022/10/12 00:03:16;;;;;;;;;;;20.80;68.60;;;;;;5020500;28;887;-67
2022/10/12 00:05:42;;;;;;;;;;;20.80;68.50;;;;;;5021933;28;828;-67
2022/10/12 00:08:07;;;;;;;;;;;20.80;68.50;;;;;;5019891;28;1346;-67
2022/10/12 00:10:33;;;;;;;;;;;20.70;68.50;;;;;;5020011;28;1257;-67
2022/10/12 00:12:58;;;;;;;;;;;20.80;68.50;;;;;;5017130;28;847;-67
2022/10/12 00:15:24;;;;;;;;;;;20.80;68.60;;;;;;5015885;28;888;-67
2022/10/12 00:17:49;;;;;;;;;;;20.70;68.50;;;;;;5019699;28;1969;-67
2022/10/12 00:20:15;;;;;;;;;;;20.70;68.50;;;;;;5019879;28;868;-68
2022/10/12 00:22:40;;;;;;;;;;;20.70;68.50;;;;;;5018450;28;993;-67
2022/10/12 00:25:05;;;;;;;;;;;20.70;68.50;;;;;;5017687;28;892;-67
2022/10/12 00:27:31;;;;;;;;;;;20.70;68.50;;;;;;5021393;28;1259;-68
2022/10/12 00:29:56;;;;;;;;;;;20.70;68.50;;;;;;5004937;28;1367;-68
2022/10/12 00:32:22;;;;;;;;;;;20.70;68.50;;;;;;5020008;28;1439;-67
2022/10/12 00:34:47;;;;;;;;;;;20.70;68.50;;;;;;5022376;28;897;-67
2022/10/12 00:37:13;;;;;;;;;;;20.70;68.50;;;;;;5022842;28;1898;-67
2022/10/12 00:39:38;;;;;;;;;;;20.70;68.60;;;;;;5018385;28;1497;-67
2022/10/12 00:42:04;;;;;;;;;;;20.70;68.60;;;;;;5019738;28;888;-68
2022/10/12 00:44:32;;;;;;;;;;;20.70;68.60;;;;;;5017488;28;851;-67
2022/10/12 00:46:57;;;;;;;;;;;20.70;68.50;;;;;;5019763;28;1383;-67
2022/10/12 00:49:23;;;;;;;;;;;20.70;68.50;;;;;;5017816;28;1129;-67
2022/10/12 00:51:52;;;;;;;;;;;20.70;68.50;;;;;;4989803;28;1337;-67
2022/10/12 00:54:19;;;;;;;;;;;20.70;68.60;;;;;;5010927;28;974;-67
2022/10/12 00:56:45;;;;;;;;;;;20.70;68.60;;;;;;5002433;28;1894;-68
2022/10/12 00:59:11;;;;;;;;;;;20.70;68.60;;;;;;5005865;28;1698;-68
2022/10/12 01:01:36;;;;;;;;;;;20.70;68.60;;;;;;5002064;28;2317;-68
2022/10/12 01:04:02;;;;;;;;;;;20.70;68.60;;;;;;5006929;28;1425;-68
2022/10/12 01:06:28;;;;;;;;;;;20.70;68.60;;;;;;5023969;28;1527;-68
2022/10/12 01:08:54;;;;;;;;;;;20.70;68.60;;;;;;5003536;28;1383;-68
2022/10/12 01:11:19;;;;;;;;;;;20.70;68.60;;;;;;5002987;28;1801;-68
2022/10/12 01:13:44;;;;;;;;;;;20.70;68.60;;;;;;5019808;28;1297;-66
2022/10/12 01:16:12;;;;;;;;;;;20.70;68.60;;;;;;5006081;28;1398;-67
2022/10/12 01:18:49;;;;;;;;;;;20.70;68.60;;;;;;5004062;28;1915;-67
2022/10/12 01:21:21;;;;;;;;;;;20.70;68.60;;;;;;5003602;28;1611;-67
2022/10/12 01:24:00;;;;;;;;;;;20.70;68.60;;;;;;5005170;28;1352;-67
2022/10/12 01:26:41;;;;;;;;;;;20.70;68.60;;;;;;5002301;28;1265;-67
2022/10/12 01:29:20;;;;;;;;;;;20.70;68.60;;;;;;5004688;28;1437;-68
2022/10/12 01:31:45;;;;;;;;;;;20.70;68.70;;;;;;5004140;28;1394;-69
2022/10/12 01:34:16;;;;;;;;;;;20.70;68.60;;;;;;5021650;28;1490;-68
2022/10/12 01:36:43;;;;;;;;;;;20.70;68.60;;;;;;5019578;28;1894;-68
2022/10/12 01:39:11;;;;;;;;;;;20.70;68.60;;;;;;5003471;28;1384;-68
2022/10/12 01:41:39;;;;;;;;;;;20.70;68.60;;;;;;5008336;28;1041;-67
2022/10/12 01:44:04;;;;;;;;;;;20.70;68.70;;;;;;5002931;28;1231;-66
2022/10/12 01:46:29;;;;;;;;;;;20.70;68.60;;;;;;5017033;28;1022;-68
2022/10/12 01:48:59;;;;;;;;;;;20.70;68.70;;;;;;5018275;28;1299;-68
2022/10/12 01:51:28;;;;;;;;;;;20.70;68.70;;;;;;5017019;28;1314;-67
2022/10/12 01:54:29;;;;;;;;;;;20.70;68.70;;;;;;5016016;28;1010;-67
2022/10/12 01:56:54;;;;;;;;;;;20.70;68.70;;;;;;4942322;29;1899;-67
2022/10/12 01:59:23;;;;;;;;;;;20.70;68.70;;;;;;5003744;28;976;-67
2022/10/12 02:01:51;;;;;;;;;;;20.70;68.70;;;;;;5018686;28;1037;-67
2022/10/12 02:04:22;;;;;;;;;;;20.70;68.70;;;;;;5017797;28;1807;-67
2022/10/12 02:06:51;;;;;;;;;;;20.70;68.70;;;;;;5018587;28;1219;-66
2022/10/12 02:09:21;;;;;;;;;;;20.70;68.70;;;;;;5004830;28;1003;-66
2022/10/12 02:11:47;;;;;;;;;;;20.70;68.60;;;;;;5002631;28;994;-67
2022/10/12 02:14:16;;;;;;;;;;;20.70;68.60;;;;;;5004080;28;2232;-68
2022/10/12 02:16:43;;;;;;;;;;;20.70;68.60;;;;;;5002948;28;1965;-68
2022/10/12 02:19:09;;;;;;;;;;;20.70;68.60;;;;;;5019820;28;1367;-67
2022/10/12 02:21:35;;;;;;;;;;;20.70;68.60;;;;;;4999357;28;1466;-67
2022/10/12 02:24:01;;;;;;;;;;;20.70;68.70;;;;;;5002244;28;951;-68
2022/10/12 02:26:27;;;;;;;;;;;20.70;68.60;;;;;;5015803;28;836;-68
2022/10/12 02:28:52;;;;;;;;;;;20.70;68.60;;;;;;4995452;28;1635;-67
2022/10/12 02:31:21;;;;;;;;;;;20.70;68.60;;;;;;4998556;28;1354;-67
2022/10/12 02:33:49;;;;;;;;;;;20.70;68.60;;;;;;5019748;28;861;-67
2022/10/12 02:36:16;;;;;;;;;;;20.70;68.60;;;;;;5016680;28;1003;-67
2022/10/12 02:38:49;;;;;;;;;;;20.70;68.60;;;;;;5014965;28;1963;-67
2022/10/12 02:41:15;;;;;;;;;;;20.70;68.60;;;;;;5001464;28;1098;-67
2022/10/12 02:43:42;;;;;;;;;;;20.70;68.60;;;;;;5016197;28;894;-67
2022/10/12 02:46:08;;;;;;;;;;;20.70;68.60;;;;;;4996676;28;1090;-68
2022/10/12 02:48:33;;;;;;;;;;;20.70;68.60;;;;;;5018898;28;1239;-67
2022/10/12 02:50:59;;;;;;;;;;;20.70;68.60;;;;;;5002195;28;791;-67
2022/10/12 02:53:24;;;;;;;;;;;20.70;68.60;;;;;;5003429;28;859;-67
2022/10/12 02:55:50;;;;;;;;;;;20.70;68.60;;;;;;5020476;28;860;-67
2022/10/12 02:58:16;;;;;;;;;;;20.70;68.60;;;;;;5020743;28;1963;-67
2022/10/12 03:00:41;;;;;;;;;;;20.70;68.60;;;;;;5022245;28;1066;-67
2022/10/12 03:03:07;;;;;;;;;;;20.70;68.60;;;;;;5018009;28;884;-67
2022/10/12 03:05:32;;;;;;;;;;;20.70;68.60;;;;;;5015979;28;793;-67
2022/10/12 03:07:58;;;;;;;;;;;20.70;68.60;;;;;;5022558;28;1360;-67
2022/10/12 03:10:23;;;;;;;;;;;20.70;68.60;;;;;;5023189;28;954;-67
2022/10/12 03:12:48;;;;;;;;;;;20.70;68.60;;;;;;5021805;28;994;-66
2022/10/12 03:15:14;;;;;;;;;;;20.70;68.50;;;;;;5022013;28;923;-67
2022/10/12 03:17:39;;;;;;;;;;;20.70;68.50;;;;;;5020236;28;1902;-67
2022/10/12 03:20:05;;;;;;;;;;;20.70;68.40;;;;;;5022381;28;923;-67
2022/10/12 03:22:30;;;;;;;;;;;20.80;68.40;;;;;;5022987;28;1479;-67
2022/10/12 03:24:58;;;;;;;;;;;20.80;68.30;;;;;;5019475;28;919;-67
2022/10/12 03:27:24;;;;;;;;;;;20.80;68.20;;;;;;5015907;28;1344;-66
2022/10/12 03:29:50;;;;;;;;;;;20.80;68.10;;;;;;5025747;28;1296;-67
2022/10/12 03:32:15;;;;;;;;;;;20.90;68.10;;;;;;5024155;28;1421;-67
2022/10/12 03:34:41;;;;;;;;;;;20.90;68.00;;;;;;5019800;28;793;-67
2022/10/12 03:37:06;;;;;;;;;;;20.90;67.90;;;;;;5018809;28;1902;-67
2022/10/12 03:39:32;;;;;;;;;;;20.90;67.80;;;;;;5022930;28;953;-66
2022/10/12 03:41:57;;;;;;;;;;;20.90;67.80;;;;;;5013518;28;4057;-67
2022/10/12 03:44:22;;;;;;;;;;;20.90;67.70;;;;;;5020996;28;1051;-67
2022/10/12 03:46:48;;;;;;;;;;;20.90;67.70;;;;;;5017639;28;1364;-67
2022/10/12 03:49:13;;;;;;;;;;;20.90;67.60;;;;;;5020729;28;1030;-67
2022/10/12 03:51:39;;;;;;;;;;;20.90;67.60;;;;;;5023395;28;927;-67
2022/10/12 03:54:04;;;;;;;;;;;20.90;67.50;;;;;;5018221;28;851;-66
2022/10/12 03:56:30;;;;;;;;;;;21.00;67.50;;;;;;5005821;28;856;-66
2022/10/12 03:58:55;;;;;;;;;;;21.00;67.50;;;;;;5020363;28;1903;-67
2022/10/12 04:01:21;;;;;;;;;;;21.00;67.50;;;;;;5022020;28;884;-67
2022/10/12 04:03:46;;;;;;;;;;;21.00;67.40;;;;;;5019044;28;991;-67
2022/10/12 04:06:11;;;;;;;;;;;21.00;67.40;;;;;;5020940;28;1019;-67
2022/10/12 04:08:37;;;;;;;;;;;21.00;67.40;;;;;;5020590;28;1294;-66
2022/10/12 04:11:02;;;;;;;;;;;21.00;67.40;;;;;;5020765;28;1613;-67
2022/10/12 04:13:28;;;;;;;;;;;21.00;67.40;;;;;;5022624;28;936;-68
2022/10/12 04:15:54;;;;;;;;;;;21.00;67.40;;;;;;5003909;28;1373;-67
2022/10/12 04:18:19;;;;;;;;;;;21.00;67.30;;;;;;5018651;28;1886;-67
2022/10/12 04:20:48;;;;;;;;;;;21.00;67.30;;;;;;5021419;28;887;-67
2022/10/12 04:23:13;;;;;;;;;;;21.00;67.30;;;;;;5002178;28;801;-67
2022/10/12 04:25:38;;;;;;;;;;;21.00;67.30;;;;;;5020021;28;880;-67
2022/10/12 04:28:04;;;;;;;;;;;21.00;67.30;;;;;;5023757;28;1268;-67
2022/10/12 04:30:29;;;;;;;;;;;21.00;67.30;;;;;;5023681;28;1336;-68
2022/10/12 04:32:55;;;;;;;;;;;21.00;67.20;;;;;;5019284;28;1069;-67
2022/10/12 04:35:20;;;;;;;;;;;21.00;67.20;;;;;;5011573;28;1189;-67
2022/10/12 04:37:46;;;;;;;;;;;21.00;67.30;;;;;;5016165;28;1902;-67
2022/10/12 04:40:11;;;;;;;;;;;21.00;67.20;;;;;;5020702;28;959;-67
2022/10/12 04:42:37;;;;;;;;;;;21.00;67.20;;;;;;5023077;28;1089;-67
2022/10/12 04:45:02;;;;;;;;;;;21.00;68.00;;;;;;5019507;28;866;-68
2022/10/12 04:47:28;;;;;;;;;;;21.00;67.20;;;;;;5020858;28;1332;-68
2022/10/12 04:49:53;;;;;;;;;;;21.00;67.20;;;;;;5019805;28;820;-68
2022/10/12 04:52:18;;;;;;;;;;;21.00;67.20;;;;;;5018924;28;804;-68
2022/10/12 04:54:44;;;;;;;;;;;21.00;67.20;;;;;;5007214;28;1185;-67
2022/10/12 04:57:09;;;;;;;;;;;21.00;67.30;;;;;;5017792;28;1886;-67
2022/10/12 04:59:35;;;;;;;;;;;21.00;67.30;;;;;;5019260;28;887;-67
2022/10/12 05:02:00;;;;;;;;;;;21.00;67.30;;;;;;5005226;28;999;-68
2022/10/12 05:04:26;;;;;;;;;;;21.00;67.30;;;;;;5017565;28;1026;-67
2022/10/12 05:06:51;;;;;;;;;;;21.00;67.30;;;;;;4998964;28;1263;-67
2022/10/12 05:09:16;;;;;;;;;;;21.00;67.40;;;;;;5019577;28;849;-68
2022/10/12 05:11:42;;;;;;;;;;;21.00;67.40;;;;;;5018251;28;884;-68
2022/10/12 05:14:08;;;;;;;;;;;21.00;67.40;;;;;;5019504;28;891;-67
2022/10/12 05:16:33;;;;;;;;;;;21.00;67.40;;;;;;5006820;28;892;-67
2022/10/12 05:19:00;;;;;;;;;;;21.00;67.40;;;;;;5019563;28;1907;-68
2022/10/12 05:21:26;;;;;;;;;;;21.00;67.40;;;;;;5024063;28;888;-68
2022/10/12 05:23:51;;;;;;;;;;;21.00;67.40;;;;;;5025468;28;883;-68
2022/10/12 05:26:17;;;;;;;;;;;21.00;67.50;;;;;;5016947;28;855;-69
2022/10/12 05:28:42;;;;;;;;;;;21.00;67.50;;;;;;5006332;28;1204;-69
2022/10/12 05:31:08;;;;;;;;;;;21.00;67.50;;;;;;5014199;28;1270;-68
2022/10/12 05:33:33;;;;;;;;;;;20.90;67.50;;;;;;5023409;28;1856;-68
2022/10/12 05:35:59;;;;;;;;;;;20.90;67.50;;;;;;5019655;28;844;-67
2022/10/12 05:38:24;;;;;;;;;;;20.90;68.20;;;;;;5022194;28;2024;-68
2022/10/12 05:40:49;;;;;;;;;;;20.90;67.50;;;;;;5023012;28;867;-68
2022/10/12 05:43:15;;;;;;;;;;;20.90;67.80;;;;;;5024293;28;876;-68
2022/10/12 05:45:41;;;;;;;;;;;20.90;67.60;;;;;;5020911;28;919;-68
2022/10/12 05:48:06;;;;;;;;;;;20.90;67.60;;;;;;5022852;28;1276;-68
2022/10/12 05:50:32;;;;;;;;;;;20.90;67.60;;;;;;5018519;28;943;-68
2022/10/12 05:52:57;;;;;;;;;;;20.90;67.60;;;;;;5020490;28;935;-67
2022/10/12 05:55:22;;;;;;;;;;;20.90;67.60;;;;;;5016100;28;959;-67
2022/10/12 05:57:48;;;;;;;;;;;20.90;67.60;;;;;;5019409;28;1969;-68
2022/10/12 06:00:14;;;;;;;;;;;20.90;67.70;;;;;;5020744;28;871;-66
2022/10/12 06:02:39;;;;;;;;;;;20.90;67.60;;;;;;5017957;28;1042;-66
2022/10/12 06:05:05;;;;;;;;;;;20.90;67.60;;;;;;5016932;28;891;-66
2022/10/12 06:07:30;;;;;;;;;;;20.90;67.70;;;;;;5019633;28;1284;-66
2022/10/12 06:09:56;;;;;;;;;;;20.90;67.70;;;;;;5022068;28;1054;-66
2022/10/12 06:12:22;;;;;;;;;;;20.80;67.60;;;;;;5017941;28;817;-66
2022/10/12 06:14:48;;;;;;;;;;;20.90;67.70;;;;;;5017573;28;801;-66
2022/10/12 06:17:15;;;;;;;;;;;20.90;67.70;;;;;;5018239;28;1906;-66
2022/10/12 06:19:40;;;;;;;;;;;20.90;67.80;;;;;;5016945;28;884;-66
2022/10/12 06:22:06;;;;;;;;;;;20.90;67.70;;;;;;5022077;28;966;-67
2022/10/12 06:24:31;;;;;;;;;;;20.80;67.70;;;;;;5005325;28;781;-67
2022/10/12 06:26:57;;;;;;;;;;;20.90;67.70;;;;;;5019448;28;1193;-67
2022/10/12 06:29:22;;;;;;;;;;;20.90;67.80;;;;;;5024842;28;804;-67
2022/10/12 06:31:51;;;;;;;;;;;20.90;67.80;;;;;;5025569;28;1105;-67
2022/10/12 06:34:16;;;;;;;;;;;20.90;67.80;;;;;;5024709;28;802;-67
2022/10/12 06:36:42;;;;;;;;;;;20.90;67.90;;;;;;5011835;28;1973;-67
2022/10/12 06:39:08;;;;;;;;;;;20.90;68.20;;;;;;5023297;28;1186;-68
2022/10/12 06:41:33;;;;;;;;;;;20.90;68.20;;;;;;5027518;28;915;-68
2022/10/12 06:43:59;;;;;;;;;;;20.90;68.20;;;;;;5026243;28;884;-68
2022/10/12 06:46:24;;;;;;;;;;;20.90;68.40;;;;;;5025942;28;1751;-70
2022/10/12 06:48:49;;;;;;;;;;;20.90;68.50;;;;;;5007594;28;1309;-68
2022/10/12 06:51:15;;;;;;;;;;;20.90;68.50;;;;;;5024136;28;1443;-69
2022/10/12 06:53:40;;;;;;;;;;;20.80;68.50;;;;;;5023418;28;2082;-69
2022/10/12 06:56:08;;;;;;;;;;;20.80;68.50;;;;;;5025628;28;1459;-67
2022/10/12 06:58:34;;;;;;;;;;;20.90;68.50;;;;;;5007177;28;1958;-67
2022/10/12 07:01:03;;;;;;;;;;;20.90;68.60;;;;;;5027107;28;801;-68
2022/10/12 07:03:28;;;;;;;;;;;20.80;68.60;;;;;;5024802;28;902;-68
2022/10/12 07:05:54;;;;;;;;;;;20.90;68.60;;;;;;5026636;28;864;-67
2022/10/12 07:08:19;;;;;;;;;;;20.90;68.70;;;;;;5024626;28;1261;-67
2022/10/12 07:10:44;;;;;;;;;;;20.90;68.60;;;;;;5026236;28;997;-67
2022/10/12 07:13:10;;;;;;;;;;;20.80;68.50;;;;;;5020771;28;875;-67
2022/10/12 07:15:35;;;;;;;;;;;20.90;68.60;;;;;;5023995;28;899;-68
2022/10/12 07:18:01;;;;;;;;;;;20.90;68.70;;;;;;5025227;28;1906;-67
2022/10/12 07:20:26;;;;;;;;;;;20.90;68.80;;;;;;5028208;28;875;-67
2022/10/12 07:22:52;;;;;;;;;;;20.80;68.80;;;;;;5025726;28;932;-67
2022/10/12 07:25:17;;;;;;;;;;;20.80;68.80;;;;;;5010073;28;1385;-67
2022/10/12 07:27:45;;;;;;;;;;;20.80;68.80;;;;;;5025988;28;1335;-67
2022/10/12 07:30:11;;;;;;;;;;;20.80;68.80;;;;;;5014017;28;1010;-67
2022/10/12 07:32:37;;;;;;;;;;;20.80;68.80;;;;;;5023457;28;905;-67
2022/10/12 07:35:02;;;;;;;;;;;20.80;68.70;;;;;;5026110;28;1062;-68
2022/10/12 07:37:28;;;;;;;;;;;20.80;68.90;;;;;;5024602;28;1961;-67
2022/10/12 07:39:56;;;;;;;;;;;20.80;68.80;;;;;;5019361;28;793;-67
2022/10/12 07:42:22;;;;;;;;;;;20.80;68.80;;;;;;5021612;28;883;-67
2022/10/12 07:44:47;;;;;;;;;;;20.80;68.80;;;;;;5021978;28;1338;-67
2022/10/12 07:47:12;;;;;;;;;;;20.80;68.90;;;;;;5020260;28;1280;-67
2022/10/12 07:49:38;;;;;;;;;;;20.80;68.80;;;;;;5019284;28;932;-67
2022/10/12 07:52:03;;;;;;;;;;;20.80;68.80;;;;;;5021730;28;994;-67
2022/10/12 07:54:29;;;;;;;;;;;20.80;68.90;;;;;;5015960;28;884;-67
2022/10/12 07:56:55;;;;;;;;;;;20.80;68.90;;;;;;5020466;28;1973;-67
2022/10/12 07:59:20;;;;;;;;;;;20.80;68.80;;;;;;5019290;28;857;-67
2022/10/12 08:01:45;;;;;;;;;;;20.80;68.80;;;;;;5020188;28;865;-67
2022/10/12 08:04:11;;;;;;;;;;;20.80;68.70;;;;;;5019126;28;844;-67
2022/10/12 08:06:36;;;;;;;;;;;20.80;68.80;;;;;;5018747;28;820;-68
2022/10/12 08:09:02;;;;;;;;;;;20.80;68.80;;;;;;5018815;28;1387;-67
2022/10/12 08:11:28;;;;;;;;;;;20.80;68.90;;;;;;5019838;28;1302;-67
2022/10/12 08:13:54;;;;;;;;;;;20.80;68.90;;;;;;5019725;28;1077;-67
2022/10/12 08:16:20;;;;;;;;;;;20.80;68.90;;;;;;5010201;28;932;-68
2022/10/12 08:18:45;;;;;;;;;;;20.90;69.00;;;;;;5001301;28;1969;-68
2022/10/12 08:21:11;;;;;;;;;;;20.90;69.00;;;;;;5022441;28;892;-68
2022/10/12 08:23:37;;;;;;;;;;;20.80;68.90;;;;;;5025304;28;944;-68
2022/10/12 08:26:02;;;;;;;;;;;20.80;69.00;;;;;;5023250;28;891;-67
2022/10/12 08:28:28;;;;;;;;;;;20.80;69.10;;;;;;5022184;28;1302;-67
2022/10/12 08:30:53;;;;;;;;;;;20.80;69.00;;;;;;5019577;28;1268;-67
2022/10/12 08:33:19;;;;;;;;;;;20.80;69.10;;;;;;5021492;28;1365;-68
2022/10/12 08:35:44;;;;;;;;;;;20.80;69.00;;;;;;5022526;28;1192;-67
2022/10/12 08:38:10;;;;;;;;;;;20.80;69.10;;;;;;5019865;28;1906;-67
2022/10/12 08:40:40;;;;;;;;;;;20.90;69.00;;;;;;5001497;28;1015;-67
2022/10/12 08:43:12;;;;;;;;;;;20.90;69.00;;;;;;5018860;28;1078;-67
2022/10/12 08:45:41;;;;;;;;;;;20.90;69.20;;;;;;5019891;28;1587;-68
2022/10/12 08:48:14;;;;;;;;;;;20.90;69.10;;;;;;5003534;28;1375;-67
2022/10/12 08:50:42;;;;;;;;;;;20.90;69.10;;;;;;5002595;28;826;-68
2022/10/12 08:53:27;;;;;;;;;;;20.80;69.10;;;;;;5006814;28;960;-68
2022/10/12 08:55:53;;;;;;;;;;;20.90;69.10;;;;;;5014703;28;876;-67
2022/10/12 08:58:19;;;;;;;;;;;20.80;69.10;;;;;;5018062;28;1895;-68
2022/10/12 09:00:49;;;;;;;;;;;20.80;69.10;;;;;;5001700;28;828;-67
2022/10/12 09:03:34;;;;;;;;;;;20.80;69.10;;;;;;4998927;28;1454;-67
2022/10/12 09:06:02;;;;;;;;;;;20.80;69.10;;;;;;5022432;28;804;-66
2022/10/12 09:08:46;;;;;;;;;;;20.90;69.30;;;;;;5019825;28;1359;-65
2022/10/12 09:11:30;;;;;;;;;;;20.90;68.60;;;;;;5023082;28;1025;-64
2022/10/12 09:14:01;;;;;;;;;;;20.90;66.00;;;;;;5024547;28;900;-65
2022/10/12 09:16:28;;;;;;;;;;;20.80;63.80;;;;;;5013004;28;875;-65
2022/10/12 09:19:16;;;;;;;;;;;20.90;63.40;;;;;;5001106;28;1902;-65
2022/10/12 09:21:42;;;;;;;;;;;20.80;62.30;;;;;;5009096;28;1319;-65
2022/10/12 09:24:10;;;;;;;;;;;20.90;62.20;;;;;;4999401;28;777;-65
2022/10/12 09:26:36;;;;;;;;;;;20.80;61.00;;;;;;5025180;28;1015;-65
2022/10/12 09:29:06;;;;;;;;;;;20.80;60.80;;;;;;5020460;28;1337;-66
2022/10/12 09:31:42;;;;;;;;;;;20.80;60.80;;;;;;5009716;28;1376;-65
2022/10/12 09:34:07;;;;;;;;;;;20.80;60.50;;;;;;5020749;28;817;-66
2022/10/12 09:36:34;;;;;;;;;;;20.80;60.30;;;;;;5002024;28;871;-66
2022/10/12 09:39:01;;;;;;;;;;;20.80;60.40;;;;;;5019872;28;1887;-66
2022/10/12 09:41:37;;;;;;;;;;;20.80;60.40;;;;;;5004013;28;1085;-65
2022/10/12 09:44:02;;;;;;;;;;;20.80;59.80;;;;;;5003101;28;1027;-66
2022/10/12 09:46:32;;;;;;;;;;;20.70;60.00;;;;;;5019541;28;844;-66
2022/10/12 09:48:58;;;;;;;;;;;20.70;59.90;;;;;;5003935;28;1319;-66
2022/10/12 09:51:23;;;;;;;;;;;20.70;59.60;;;;;;5005263;28;1261;-66
2022/10/12 09:53:48;;;;;;;;;;;20.70;59.10;;;;;;5023437;28;1380;-65
2022/10/12 09:56:25;;;;;;;;;;;20.70;59.30;;;;;;5018444;28;847;-66
2022/10/12 09:58:52;;;;;;;;;;;20.70;59.30;;;;;;4998651;28;1895;-66
2022/10/12 10:01:22;;;;;;;;;;;20.70;59.30;;;;;;5002675;28;1042;-66
2022/10/12 10:03:50;;;;;;;;;;;20.70;59.00;;;;;;4998561;28;1301;-66
2022/10/12 10:06:21;;;;;;;;;;;20.70;58.80;;;;;;5017716;28;849;-65
2022/10/12 10:08:47;;;;;;;;;;;20.70;58.70;;;;;;5001289;28;1255;-66
2022/10/12 10:11:18;;;;;;;;;;;20.60;59.00;;;;;;5019633;28;902;-65
2022/10/12 10:13:45;;;;;;;;;;;20.60;57.80;;;;;;5002963;28;934;-66
2022/10/12 10:16:10;;;;;;;;;;;20.60;57.80;;;;;;5017131;28;1172;-65
2022/10/12 10:18:37;;;;;;;;;;;20.60;58.20;;;;;;5016597;28;1967;-66
2022/10/12 10:21:06;;;;;;;;;;;20.60;58.50;;;;;;5002061;28;1047;-66
2022/10/12 10:23:34;;;;;;;;;;;20.60;58.70;;;;;;5017685;28;1998;-66
2022/10/12 10:26:03;;;;;;;;;;;20.60;58.00;;;;;;5018811;28;1235;-66
2022/10/12 10:28:28;;;;;;;;;;;20.60;57.90;;;;;;5019750;28;1289;-65
2022/10/12 10:30:55;;;;;;;;;;;20.60;58.00;;;;;;5019063;28;1340;-66
2022/10/12 10:33:20;;;;;;;;;;;20.60;58.10;;;;;;5019614;28;1472;-65
2022/10/12 10:36:05;;;;;;;;;;;20.60;58.50;;;;;;5017938;28;819;-65
2022/10/12 10:38:51;;;;;;;;;;;20.60;57.50;;;;;;5001576;28;1967;-65
2022/10/12 10:41:19;;;;;;;;;;;20.60;57.70;;;;;;4988948;28;1146;-65
2022/10/12 10:43:45;;;;;;;;;;;20.60;57.30;;;;;;4988737;28;2343;-65
2022/10/12 10:46:11;;;;;;;;;;;20.60;57.20;;;;;;5000981;28;2208;-65
2022/10/12 10:48:47;;;;;;;;;;;20.50;57.00;;;;;;5000987;28;1392;-65
2022/10/12 10:51:12;;;;;;;;;;;20.50;56.30;;;;;;5019877;28;1357;-65
2022/10/12 10:53:42;;;;;;;;;;;20.50;56.20;;;;;;5002202;28;1003;-65
2022/10/12 10:56:10;;;;;;;;;;;20.50;56.80;;;;;;5001395;28;1030;-65
2022/10/12 10:58:44;;;;;;;;;;;20.60;56.40;;;;;;5000998;28;1961;-65
2022/10/12 11:01:19;;;;;;;;;;;20.50;56.80;;;;;;5019315;28;929;-65
2022/10/12 11:03:47;;;;;;;;;;;20.50;56.50;;;;;;5017246;28;1053;-65
2022/10/12 11:06:17;;;;;;;;;;;20.50;56.40;;;;;;5020790;28;1023;-65
2022/10/12 11:08:42;;;;;;;;;;;20.50;56.50;;;;;;5004408;28;1338;-65
2022/10/12 11:11:10;;;;;;;;;;;20.50;56.80;;;;;;5002799;28;1102;-65
2022/10/12 11:13:35;;;;;;;;;;;20.50;56.90;;;;;;5008384;28;919;-65
2022/10/12 11:16:06;;;;;;;;;;;20.50;56.10;;;;;;5021093;28;923;-65
2022/10/12 11:18:40;;;;;;;;;;;20.50;55.70;;;;;;5005241;28;1973;-66
2022/10/12 11:21:25;;;;;;;;;;;20.50;56.30;;;;;;5002881;28;2026;-65
2022/10/12 11:23:53;;;;;;;;;;;20.50;56.20;;;;;;5022204;28;1306;-65
2022/10/12 11:26:19;;;;;;;;;;;20.50;55.10;;;;;;5021612;28;1336;-64
2022/10/12 11:28:44;;;;;;;;;;;20.50;55.10;;;;;;5021499;28;1287;-64
2022/10/12 11:31:13;;;;;;;;;;;20.50;54.80;;;;;;5007970;28;1515;-65
2022/10/12 11:33:39;;;;;;;;;;;20.50;55.40;;;;;;5022496;28;892;-65
2022/10/12 11:36:06;;;;;;;;;;;20.50;55.00;;;;;;5022408;28;911;-65
2022/10/12 11:38:31;;;;;;;;;;;20.50;55.40;;;;;;5006774;28;1973;-65
2022/10/12 11:41:00;;;;;;;;;;;20.50;54.60;;;;;;5023226;28;879;-65
2022/10/12 11:43:27;;;;;;;;;;;20.50;54.50;;;;;;5018656;28;880;-65
2022/10/12 11:45:54;;;;;;;;;;;20.50;54.80;;;;;;5006501;28;2199;-65
2022/10/12 11:48:21;;;;;;;;;;;20.50;54.80;;;;;;5004078;28;1867;-64
2022/10/12 11:50:47;;;;;;;;;;;20.50;54.90;;;;;;5008150;28;1209;-65
2022/10/12 11:53:18;;;;;;;;;;;20.50;54.60;;;;;;5023320;28;1530;-65
2022/10/12 11:55:58;;;;;;;;;;;20.40;54.80;;;;;;5017282;28;1265;-65
2022/10/12 11:58:44;;;;;;;;;;;20.50;55.10;;;;;;5023346;28;1902;-66
2022/10/12 12:01:12;;;;;;;;;;;20.40;55.00;;;;;;5023346;28;1459;-66
2022/10/12 12:03:43;;;;;;;;;;;20.40;55.00;;;;;;5002162;28;1493;-65
2022/10/12 12:06:27;;;;;;;;;;;20.40;55.40;;;;;;5021835;28;892;-65
2022/10/12 12:08:56;;;;;;;;;;;20.40;55.90;;;;;;5021311;28;1290;-66
2022/10/12 12:11:23;;;;;;;;;;;20.40;56.30;;;;;;5019801;28;1345;-66
2022/10/12 12:13:48;;;;;;;;;;;20.40;56.60;;;;;;5008936;28;1434;-66
2022/10/12 12:16:16;;;;;;;;;;;20.50;57.00;;;;;;5020000;28;1006;-66
2022/10/12 12:19:00;;;;;;;;;;;20.50;57.30;;;;;;5016301;28;1962;-66
2022/10/12 12:21:26;;;;;;;;;;;20.50;57.50;;;;;;5021033;28;1076;-66
2022/10/12 12:23:52;;;;;;;;;;;20.50;57.90;;;;;;5002987;28;1316;-66
2022/10/12 12:26:18;;;;;;;;;;;20.50;58.20;;;;;;5020131;28;871;-66
2022/10/12 12:28:44;;;;;;;;;;;20.50;58.50;;;;;;5006671;28;1358;-67
2022/10/12 12:31:14;;;;;;;;;;;20.50;58.30;;;;;;5001812;28;1415;-66
2022/10/12 12:33:41;;;;;;;;;;;20.50;58.40;;;;;;5003283;28;865;-66
2022/10/12 12:36:07;;;;;;;;;;;20.50;58.90;;;;;;5023117;28;1294;-66
2022/10/12 12:38:34;;;;;;;;;;;20.50;58.90;;;;;;5020468;28;1927;-66
2022/10/12 12:41:04;;;;;;;;;;;20.50;59.20;;;;;;5002017;28;1018;-66
2022/10/12 12:43:29;;;;;;;;;;;20.50;59.30;;;;;;4999908;28;1531;-67
2022/10/12 12:45:57;;;;;;;;;;;20.60;59.20;;;;;;5018990;28;1257;-69
2022/10/12 12:48:38;;;;;;;;;;;20.60;59.40;;;;;;5019913;28;1274;-68
2022/10/12 12:51:13;;;;;;;;;;;20.60;59.50;;;;;;5018475;28;870;-65
2022/10/12 12:53:39;;;;;;;;;;;20.60;59.60;;;;;;4999015;28;1098;-66
2022/10/12 12:56:06;;;;;;;;;;;20.60;59.70;;;;;;5004304;28;1018;-66
2022/10/12 12:58:53;;;;;;;;;;;20.60;59.80;;;;;;5007046;28;1907;-66
2022/10/12 13:01:18;;;;;;;;;;;20.60;59.90;;;;;;4981673;28;1134;-67
2022/10/12 13:03:51;;;;;;;;;;;20.60;60.00;;;;;;5025339;28;860;-66
2022/10/12 13:06:43;;;;;;;;;;;20.60;60.00;;;;;;5016069;28;1202;-67
2022/10/12 13:09:29;;;;;;;;;;;20.70;60.50;;;;;;5010287;28;1050;-66
2022/10/12 13:12:15;;;;;;;;;;;20.70;59.90;;;;;;5003579;28;874;-67
2022/10/12 13:15:02;;;;;;;;;;;20.70;60.10;;;;;;5018030;28;917;-68
2022/10/12 13:17:38;;;;;;;;;;;20.70;60.20;;;;;;4999909;28;1899;-66
2022/10/12 13:20:24;;;;;;;;;;;20.70;59.90;;;;;;5017722;28;1164;-66
2022/10/12 13:22:51;;;;;;;;;;;20.70;60.20;;;;;;5004246;28;833;-66
2022/10/12 13:25:22;;;;;;;;;;;20.70;60.40;;;;;;4995124;28;1554;-66
2022/10/12 13:27:48;;;;;;;;;;;20.70;60.40;;;;;;5013573;28;1324;-66
2022/10/12 13:30:31;;;;;;;;;;;20.70;60.30;;;;;;5007347;28;1040;-67
2022/10/12 13:32:56;;;;;;;;;;;20.70;60.30;;;;;;5018973;28;1093;-66
2022/10/12 13:35:41;;;;;;;;;;;20.70;60.30;;;;;;5016294;28;1286;-67
2022/10/12 13:38:25;;;;;;;;;;;20.70;60.50;;;;;;5019497;28;1923;-69
2022/10/12 13:40:54;;;;;;;;;;;20.70;60.60;;;;;;5005755;28;1404;-68
2022/10/12 13:43:30;;;;;;;;;;;20.70;60.60;;;;;;5018105;28;1574;-69
2022/10/12 13:45:55;;;;;;;;;;;20.70;60.80;;;;;;5004370;28;1393;-69
2022/10/12 13:48:21;;;;;;;;;;;20.70;60.70;;;;;;5020551;28;1415;-67
2022/10/12 13:51:13;;;;;;;;;;;20.70;60.90;;;;;;5015421;28;1296;-68
2022/10/12 13:53:38;;;;;;;;;;;20.70;60.90;;;;;;5013002;28;1123;-67
2022/10/12 13:56:07;;;;;;;;;;;20.70;61.00;;;;;;5016268;28;1255;-67
2022/10/12 13:58:34;;;;;;;;;;;20.70;61.10;;;;;;5018343;28;1898;-66
2022/10/12 14:00:59;;;;;;;;;;;20.70;61.40;;;;;;4999178;28;966;-64
2022/10/12 14:03:25;;;;;;;;;;;20.70;61.50;;;;;;5020105;28;892;-67
2022/10/12 14:05:52;;;;;;;;;;;20.70;61.40;;;;;;5015063;28;915;-67
2022/10/12 14:08:25;;;;;;;;;;;20.70;61.60;;;;;;4999714;28;1377;-67
2022/10/12 14:10:50;;;;;;;;;;;20.70;61.50;;;;;;5003934;28;1214;-67
2022/10/12 14:13:29;;;;;;;;;;;20.70;61.70;;;;;;4999955;28;860;-68
2022/10/12 14:15:54;;;;;;;;;;;20.70;61.70;;;;;;5003103;28;856;-68
2022/10/12 14:18:29;;;;;;;;;;;20.70;61.70;;;;;;5005038;28;1914;-68
2022/10/12 14:21:11;;;;;;;;;;;20.70;61.90;;;;;;5018497;28;1089;-68
2022/10/12 14:23:48;;;;;;;;;;;20.70;61.90;;;;;;5005056;28;857;-68
2022/10/12 14:26:33;;;;;;;;;;;20.70;62.00;;;;;;5000416;28;1272;-67
2022/10/12 14:28:59;;;;;;;;;;;20.60;62.00;;;;;;5004302;28;1362;-67
2022/10/12 14:31:43;;;;;;;;;;;20.70;62.20;;;;;;5008481;28;1352;-67
2022/10/12 14:34:27;;;;;;;;;;;20.70;62.20;;;;;;5015804;28;912;-67
2022/10/12 14:37:18;;;;;;;;;;;20.70;62.30;;;;;;5018567;28;1271;-66
2022/10/12 14:39:47;;;;;;;;;;;20.60;62.20;;;;;;5012032;28;1021;-67
2022/10/12 14:42:18;;;;;;;;;;;20.60;62.40;;;;;;5003902;28;863;-67